createdAt,value
2023-05-05T00:14:37.462Z,324
2023-05-05T00:34:37.460Z,314
2023-05-05T00:54:37.251Z,316
2023-05-05T01:14:37.405Z,311
2023-05-05T01:34:37.390Z,317
2023-05-05T01:54:37.359Z,321
2023-05-05T02:14:37.332Z,306
2023-05-05T02:34:37.323Z,306
2023-05-05T02:54:37.301Z,311
2023-05-05T03:14:37.268Z,318
2023-05-05T03:34:36.723Z,311
2023-05-05T03:54:37.011Z,312
2023-05-05T04:14:37.189Z,311
2023-05-05T04:34:36.657Z,305
2023-05-05T04:54:37.143Z,306
2023-05-05T05:14:37.111Z,316
2023-05-05T05:34:37.074Z,319
2023-05-05T05:54:37.056Z,320
2023-05-05T06:14:37.048Z,301
2023-05-05T06:34:37.024Z,321
2023-05-05T06:54:36.794Z,319
2023-05-05T07:14:36.962Z,322
2023-05-05T07:34:36.429Z,312
2023-05-05T07:54:36.940Z,333
2023-05-05T08:14:36.882Z,330
2023-05-05T08:34:36.843Z,324
2023-05-05T08:54:36.806Z,315
2023-05-05T09:14:36.573Z,312
2023-05-05T09:34:36.765Z,308
2023-05-05T09:54:36.729Z,315
2023-05-05T10:14:36.686Z,299
2023-05-05T10:54:38.074Z,297
2023-05-05T11:14:36.634Z,303
2023-05-05T11:34:36.570Z,311
2023-05-05T11:54:36.544Z,311
2023-05-05T12:14:36.544Z,321
2023-05-05T12:34:36.515Z,325
2023-05-05T12:54:36.471Z,325
2023-05-05T13:14:36.499Z,320
2023-05-05T13:34:36.417Z,335
2023-05-05T13:54:36.372Z,332
2023-05-05T14:14:35.869Z,332
2023-05-05T14:34:36.340Z,335
2023-05-05T14:54:36.327Z,335
2023-05-05T15:14:36.108Z,321
2023-05-05T15:34:36.228Z,325
2023-05-05T15:54:36.213Z,317
2023-05-05T16:14:36.172Z,324
2023-05-05T16:34:36.143Z,342
2023-05-05T17:54:36.046Z,351
2023-05-05T18:14:36.050Z,344
2023-05-05T18:34:35.996Z,345
2023-05-05T18:54:37.756Z,352
2023-05-05T19:14:35.738Z,351
2023-05-05T19:34:35.923Z,353
2023-05-05T19:54:35.867Z,355
2023-05-05T20:14:35.648Z,358
2023-05-05T20:34:35.840Z,352
2023-05-05T20:54:35.822Z,356
2023-05-05T21:14:35.822Z,354
2023-05-05T21:34:35.791Z,353
2023-05-05T21:54:35.763Z,347
2023-05-05T22:14:35.500Z,343
2023-05-05T22:34:35.700Z,349
2023-05-05T22:54:35.672Z,335
2023-05-05T23:14:35.631Z,340
2023-05-05T23:34:35.137Z,338
2023-05-05T23:54:35.616Z,344
